Time;durP1;ratioP1;P1;durP2;ratioP2;P2;SDS_P1;SDS_P2;PMS_P1;PMS_P2;Temp;Humidity;BMP_temperature;BMP_pressure;BME280_temperature;BME280_humidity;BME280_pressure;Samples;Min_cycle;Max_cycle;Signal;HPM_P1;HPM_P2
2022/09/09 00:00:55;;;;;;;4.80;2.40;;;16.60;99.90;;;;;;5062416;28;20033;-74
2022/09/09 00:03:27;;;;;;;5.80;2.10;;;16.60;99.90;;;;;;5063634;28;20052;-74
2022/09/09 00:06:23;;;;;;;5.32;1.58;;;16.60;99.90;;;;;;5056099;28;20052;-73
2022/09/09 00:09:11;;;;;;;4.38;2.13;;;16.50;99.90;;;;;;5068167;28;20063;-74
2022/09/09 00:11:56;;;;;;;5.30;2.17;;;16.50;99.90;;;;;;5052582;28;20087;-74
2022/09/09 00:14:50;;;;;;;6.78;1.95;;;16.50;99.90;;;;;;5054753;28;20021;-74
2022/09/09 00:17:33;;;;;;;3.33;1.60;;;16.50;99.90;;;;;;5051882;28;20047;-74
2022/09/09 00:20:04;;;;;;;5.47;2.22;;;16.50;99.90;;;;;;5052435;28;20473;-75
2022/09/09 00:22:32;;;;;;;4.40;1.40;;;16.40;99.90;;;;;;5052926;28;20029;-74
2022/09/09 00:25:22;;;;;;;3.60;1.40;;;16.50;99.90;;;;;;5053858;28;20053;-73
2022/09/09 00:27:50;;;;;;;2.13;1.50;;;16.40;99.90;;;;;;5052532;28;20120;-74
2022/09/09 00:30:30;;;;;;;4.43;1.30;;;16.40;99.90;;;;;;5059194;28;20040;-73
2022/09/09 00:33:00;;;;;;;4.40;1.20;;;16.30;99.90;;;;;;5049007;28;20601;-73
2022/09/09 00:35:39;;;;;;;3.78;1.52;;;16.40;99.90;;;;;;5050233;28;20033;-73
2022/09/09 00:38:33;;;;;;;2.47;1.17;;;16.40;99.90;;;;;;5052030;28;20017;-74
2022/09/09 00:41:26;;;;;;;2.45;1.10;;;16.30;99.90;;;;;;5053406;28;20056;-74
2022/09/09 00:44:25;;;;;;;2.45;1.38;;;16.20;99.90;;;;;;5055453;28;20119;-74
2022/09/09 00:46:56;;;;;;;1.30;1.13;;;16.30;99.90;;;;;;5052166;28;20605;-74
2022/09/09 00:49:27;;;;;;;1.25;1.10;;;16.30;99.90;;;;;;5052163;28;20036;-74
2022/09/09 00:52:13;;;;;;;4.15;1.30;;;16.30;99.90;;;;;;5035997;28;20055;-74
2022/09/09 00:55:02;;;;;;;2.85;0.98;;;16.20;99.90;;;;;;5052249;28;20032;-74
2022/09/09 00:57:33;;;;;;;4.32;1.17;;;16.20;99.90;;;;;;5038824;28;20383;-74
2022/09/09 01:00:20;;;;;;;2.88;0.93;;;16.20;99.90;;;;;;5051214;28;20082;-74
2022/09/09 01:03:12;;;;;;;1.52;1.10;;;16.20;99.90;;;;;;5054130;28;20056;-74
2022/09/09 01:06:14;;;;;;;1.35;1.10;;;16.20;99.90;;;;;;5051368;28;20024;-74
2022/09/09 01:09:10;;;;;;;5.70;1.10;;;16.10;99.90;;;;;;5053922;28;20021;-74
2022/09/09 01:12:07;;;;;;;4.03;1.20;;;16.10;99.90;;;;;;5068833;28;20016;-73
2022/09/09 01:14:40;;;;;;;0.90;0.80;;;16.10;99.90;;;;;;5046272;28;20044;-73
2022/09/09 01:17:18;;;;;;;2.53;1.05;;;16.00;99.90;;;;;;5071029;28;20016;-73
2022/09/09 01:19:43;;;;;;;2.70;1.08;;;16.10;99.90;;;;;;5051194;28;20039;-74
2022/09/09 01:22:34;;;;;;;2.03;0.95;;;16.00;99.90;;;;;;5065328;28;20029;-75
2022/09/09 01:25:57;;;;;;;5.13;1.10;;;16.00;99.90;;;;;;5056707;28;20037;-75
2022/09/09 01:28:26;;;;;;;4.75;1.40;;;16.10;99.90;;;;;;4969286;28;20061;-74
2022/09/09 01:30:55;;;;;;;4.40;1.15;;;16.00;99.90;;;;;;4969580;28;20038;-74
2022/09/09 01:33:21;;;;;;;1.58;1.00;;;16.00;99.90;;;;;;5028889;28;20028;-74
2022/09/09 01:35:56;;;;;;;2.67;0.82;;;16.00;99.90;;;;;;5049309;28;20052;-73
2022/09/09 01:38:23;;;;;;;5.13;1.27;;;16.10;99.90;;;;;;5049761;28;20032;-73
2022/09/09 01:40:51;;;;;;;2.50;1.00;;;16.00;99.90;;;;;;5049326;28;20105;-74
2022/09/09 01:43:19;;;;;;;2.70;1.23;;;16.00;99.90;;;;;;5049195;28;20383;-73
2022/09/09 01:45:48;;;;;;;2.95;1.00;;;16.00;99.90;;;;;;5050305;28;20025;-75
2022/09/09 01:48:14;;;;;;;1.67;0.70;;;15.90;99.90;;;;;;5049187;28;20032;-75
2022/09/09 01:50:39;;;;;;;1.67;0.90;;;15.90;99.90;;;;;;5050200;28;20021;-74
2022/09/09 01:53:05;;;;;;;1.35;0.70;;;15.90;99.90;;;;;;5050591;28;20431;-74
2022/09/09 01:55:37;;;;;;;3.70;0.90;;;15.90;99.90;;;;;;5050550;28;20336;-74
2022/09/09 01:58:27;;;;;;;1.30;0.65;;;15.90;99.90;;;;;;5050244;28;20037;-74
2022/09/09 02:01:31;;;;;;;3.65;1.10;;;15.90;99.90;;;;;;5048954;28;20037;-74
2022/09/09 02:04:03;;;;;;;1.48;0.50;;;15.90;99.90;;;;;;5031983;28;20041;-74
2022/09/09 02:06:41;;;;;;;0.95;0.73;;;15.90;99.90;;;;;;5050284;28;20143;-74
2022/09/09 02:09:10;;;;;;;3.67;0.68;;;15.90;99.90;;;;;;5050513;28;20032;-74
2022/09/09 02:11:36;;;;;;;1.27;0.68;;;15.90;99.90;;;;;;5050498;28;20025;-74
2022/09/09 02:14:30;;;;;;;1.42;0.60;;;15.80;99.90;;;;;;5049699;28;20033;-74
2022/09/09 02:17:20;;;;;;;1.85;0.75;;;15.80;99.90;;;;;;5039750;28;20431;-75
2022/09/09 02:19:51;;;;;;;2.63;0.63;;;15.80;99.90;;;;;;5051917;28;20052;-73
2022/09/09 02:22:21;;;;;;;2.58;0.80;;;15.80;99.90;;;;;;5052916;28;20123;-74
2022/09/09 02:24:48;;;;;;;4.38;0.65;;;15.80;99.90;;;;;;5051331;28;20048;-74
2022/09/09 02:27:16;;;;;;;2.13;0.88;;;15.80;99.90;;;;;;5051477;28;20162;-75
2022/09/09 02:29:44;;;;;;;0.90;0.52;;;15.80;99.90;;;;;;5051996;28;20133;-74
2022/09/09 02:32:18;;;;;;;4.00;0.80;;;15.80;99.90;;;;;;5067759;28;20029;-75
2022/09/09 02:34:47;;;;;;;2.65;1.00;;;15.80;99.90;;;;;;5066148;28;20359;-74
2022/09/09 02:37:18;;;;;;;1.60;0.90;;;15.80;99.90;;;;;;5051095;28;20044;-75
2022/09/09 02:39:44;;;;;;;2.50;0.60;;;15.80;99.90;;;;;;5053186;28;20029;-75
2022/09/09 02:42:09;;;;;;;5.65;0.82;;;15.80;99.90;;;;;;5054820;28;20033;-77
2022/09/09 02:44:36;;;;;;;2.78;0.80;;;15.90;99.90;;;;;;5054805;28;20035;-75
2022/09/09 02:47:34;;;;;;;8.68;0.95;;;15.90;99.90;;;;;;5055585;28;20479;-73
2022/09/09 02:50:07;;;;;;;3.63;0.77;;;15.90;99.90;;;;;;5052845;28;20045;-72
2022/09/09 02:52:41;;;;;;;4.68;1.00;;;15.90;99.90;;;;;;5053500;28;20124;-75
2022/09/09 02:55:17;;;;;;;5.50;0.70;;;15.80;99.90;;;;;;5053222;28;20029;-75
2022/09/09 02:57:47;;;;;;;2.45;1.02;;;15.90;99.90;;;;;;5053007;28;20044;-74
2022/09/09 03:00:13;;;;;;;3.95;0.68;;;15.90;99.90;;;;;;5053225;28;20029;-73
2022/09/09 03:02:39;;;;;;;5.57;1.27;;;15.90;99.90;;;;;;5053184;28;20048;-74
2022/09/09 03:05:06;;;;;;;2.33;0.80;;;15.90;99.90;;;;;;5053395;28;20114;-75
2022/09/09 03:07:31;;;;;;;5.97;0.90;;;15.90;99.90;;;;;;5051896;28;20033;-74
2022/09/09 03:09:58;;;;;;;7.60;1.20;;;16.00;99.90;;;;;;5051603;28;20168;-75
2022/09/09 03:12:23;;;;;;;2.65;0.80;;;15.90;99.90;;;;;;5052781;28;20037;-74
2022/09/09 03:14:49;;;;;;;2.35;0.73;;;16.00;99.90;;;;;;5052632;28;20040;-75
2022/09/09 03:17:15;;;;;;;2.05;0.60;;;16.00;99.90;;;;;;5053181;28;20363;-73
2022/09/09 03:19:41;;;;;;;0.85;0.50;;;16.00;99.90;;;;;;5053250;28;20489;-75
2022/09/09 03:22:08;;;;;;;3.45;1.00;;;16.00;99.90;;;;;;5052886;28;20021;-74
2022/09/09 03:24:33;;;;;;;2.93;1.10;;;16.00;99.90;;;;;;5052592;28;20040;-73
2022/09/09 03:26:59;;;;;;;5.30;0.75;;;16.00;99.90;;;;;;5052574;28;20532;-73
2022/09/09 03:29:25;;;;;;;3.92;1.02;;;16.10;99.90;;;;;;5052290;28;20029;-75
2022/09/09 03:31:50;;;;;;;4.55;0.90;;;16.10;99.90;;;;;;5051745;28;20436;-73
2022/09/09 03:34:16;;;;;;;5.53;0.85;;;16.10;99.90;;;;;;5052388;28;20028;-75
2022/09/09 03:36:42;;;;;;;2.38;0.70;;;16.10;99.90;;;;;;5052504;28;20387;-73
2022/09/09 03:39:07;;;;;;;5.22;1.10;;;16.20;99.90;;;;;;5052218;28;20044;-75
2022/09/09 03:41:34;;;;;;;5.38;0.90;;;16.10;99.90;;;;;;5052279;28;20029;-74
2022/09/09 03:43:59;;;;;;;3.05;0.75;;;16.10;99.90;;;;;;5052395;28;20040;-74
2022/09/09 03:46:25;;;;;;;1.48;0.85;;;16.20;99.90;;;;;;5052114;28;20021;-74
2022/09/09 03:48:54;;;;;;;1.02;0.70;;;16.10;99.90;;;;;;5052392;28;20032;-74
2022/09/09 03:51:21;;;;;;;5.00;1.10;;;16.10;99.90;;;;;;5051659;28;20041;-74
2022/09/09 03:53:46;;;;;;;3.80;0.82;;;16.10;99.90;;;;;;5052027;28;20434;-75
2022/09/09 03:56:12;;;;;;;3.45;0.88;;;16.20;99.90;;;;;;5052480;28;20040;-75
2022/09/09 03:58:38;;;;;;;1.95;1.00;;;16.20;99.90;;;;;;5052004;28;20370;-73
2022/09/09 04:01:09;;;;;;;6.78;0.98;;;16.20;99.90;;;;;;5051698;28;20045;-74
2022/09/09 04:03:35;;;;;;;3.55;1.00;;;16.20;99.90;;;;;;5051958;28;20033;-74
2022/09/09 04:06:07;;;;;;;3.58;1.10;;;16.20;99.90;;;;;;5052006;28;20344;-73
2022/09/09 04:08:33;;;;;;;2.10;0.82;;;16.20;99.90;;;;;;5051858;28;20036;-73
2022/09/09 04:11:02;;;;;;;5.15;1.40;;;16.20;99.90;;;;;;5050897;28;20116;-74
2022/09/09 04:13:34;;;;;;;2.38;1.00;;;16.20;99.90;;;;;;5051596;28;20033;-74
2022/09/09 04:16:04;;;;;;;2.00;0.80;;;16.20;99.90;;;;;;5050689;28;20037;-74
2022/09/09 04:18:30;;;;;;;3.67;0.95;;;16.20;99.90;;;;;;5051778;28;20086;-74
2022/09/09 04:20:57;;;;;;;0.93;0.70;;;16.20;99.90;;;;;;5051776;28;20108;-74
2022/09/09 04:23:24;;;;;;;3.08;1.00;;;16.20;99.90;;;;;;5051476;28;20025;-73
2022/09/09 04:25:54;;;;;;;3.00;0.88;;;16.20;99.90;;;;;;5051737;28;20112;-74
2022/09/09 04:28:22;;;;;;;2.95;1.10;;;16.20;99.90;;;;;;5051260;28;20115;-74
2022/09/09 04:30:48;;;;;;;9.05;1.33;;;16.30;99.90;;;;;;5051343;28;20029;-73
2022/09/09 04:33:14;;;;;;;5.40;1.08;;;16.30;99.90;;;;;;5051331;28;20381;-74
2022/09/09 04:35:47;;;;;;;8.98;1.92;;;16.30;99.90;;;;;;5051116;28;20033;-74
2022/09/09 04:38:13;;;;;;;6.70;1.10;;;16.30;99.90;;;;;;5051561;28;20467;-75
2022/09/09 04:40:42;;;;;;;4.57;0.80;;;16.30;99.90;;;;;;5051150;28;20091;-74
2022/09/09 04:43:09;;;;;;;3.38;1.02;;;16.30;99.90;;;;;;5051129;28;20033;-75
2022/09/09 04:45:35;;;;;;;5.40;1.30;;;16.30;99.90;;;;;;5051290;28;20083;-75
2022/09/09 04:48:02;;;;;;;5.35;1.10;;;16.30;99.90;;;;;;5050189;28;20367;-75
2022/09/09 04:50:28;;;;;;;2.80;1.10;;;16.30;99.90;;;;;;5049868;28;20029;-74
2022/09/09 04:52:54;;;;;;;5.32;1.10;;;16.40;99.90;;;;;;5050333;28;20447;-74
2022/09/09 04:55:19;;;;;;;4.13;1.00;;;16.40;99.90;;;;;;5051184;28;20037;-74
2022/09/09 04:57:46;;;;;;;7.10;1.30;;;16.40;99.90;;;;;;5051012;28;20029;-74
2022/09/09 05:00:12;;;;;;;2.13;1.08;;;16.40;99.90;;;;;;5050878;28;20037;-74
2022/09/09 05:02:39;;;;;;;3.33;1.13;;;16.40;99.90;;;;;;5065715;28;20406;-74
2022/09/09 05:05:05;;;;;;;4.32;1.10;;;16.40;99.90;;;;;;5051438;28;20020;-74
2022/09/09 05:07:31;;;;;;;2.40;0.93;;;16.50;99.90;;;;;;5051199;28;20445;-74
2022/09/09 05:09:57;;;;;;;3.20;1.08;;;16.50;99.90;;;;;;5050881;28;20104;-74
2022/09/09 05:12:25;;;;;;;5.78;1.15;;;16.50;99.90;;;;;;5050731;28;20040;-74
2022/09/09 05:14:54;;;;;;;3.38;1.10;;;16.50;99.90;;;;;;5050954;28;20037;-75
2022/09/09 05:17:20;;;;;;;3.25;1.13;;;16.50;99.90;;;;;;5050452;28;20059;-75
2022/09/09 05:19:45;;;;;;;3.38;0.90;;;16.60;99.90;;;;;;5050755;28;20475;-76
2022/09/09 05:22:11;;;;;;;4.43;1.35;;;16.60;99.90;;;;;;5050765;28;20021;-75
2022/09/09 05:24:38;;;;;;;5.60;1.33;;;16.60;99.90;;;;;;5050544;28;20040;-75
2022/09/09 05:27:06;;;;;;;5.00;1.30;;;16.60;99.90;;;;;;5050320;28;20287;-74
2022/09/09 05:29:35;;;;;;;3.90;1.15;;;16.60;99.90;;;;;;5049379;28;20224;-75
2022/09/09 05:32:01;;;;;;;3.08;1.10;;;16.60;99.90;;;;;;5051027;28;20021;-75
2022/09/09 05:34:27;;;;;;;3.10;1.13;;;16.60;99.90;;;;;;5050672;28;20025;-74
2022/09/09 05:36:53;;;;;;;4.20;1.08;;;16.60;99.90;;;;;;5050522;28;20029;-75
2022/09/09 05:39:19;;;;;;;5.07;1.10;;;16.60;99.90;;;;;;5049249;28;20033;-75
2022/09/09 05:41:44;;;;;;;3.25;0.90;;;16.70;99.90;;;;;;5050202;28;20363;-75
2022/09/09 05:44:10;;;;;;;3.00;1.50;;;16.70;99.90;;;;;;5051588;28;20048;-74
2022/09/09 05:46:36;;;;;;;6.00;1.10;;;16.70;99.90;;;;;;5050221;28;20036;-76
2022/09/09 05:49:02;;;;;;;1.48;0.85;;;16.70;99.90;;;;;;5050209;28;20099;-75
2022/09/09 05:51:32;;;;;;;5.10;1.33;;;16.70;99.90;;;;;;5050885;28;20515;-75
2022/09/09 05:53:58;;;;;;;8.38;1.38;;;16.70;99.90;;;;;;5050216;28;20052;-74
2022/09/09 05:56:26;;;;;;;6.13;1.90;;;16.70;99.90;;;;;;5050199;28;20025;-74
2022/09/09 05:58:56;;;;;;;4.38;1.25;;;16.70;99.90;;;;;;5050914;28;20439;-76
2022/09/09 06:01:24;;;;;;;7.75;1.10;;;16.70;99.90;;;;;;5050282;28;20176;-74
2022/09/09 06:03:51;;;;;;;5.03;0.95;;;16.80;99.90;;;;;;5050192;28;20438;-77
2022/09/09 06:06:20;;;;;;;3.97;1.55;;;16.80;99.90;;;;;;5050565;28;20051;-76
2022/09/09 06:08:47;;;;;;;11.68;2.38;;;16.80;99.90;;;;;;5049577;28;20025;-78
2022/09/09 06:11:21;;;;;;;8.95;3.85;;;16.90;99.90;;;;;;5050949;28;20029;-78
2022/09/09 06:13:47;;;;;;;9.20;2.05;;;17.00;99.90;;;;;;5052722;28;20033;-77
2022/09/09 06:16:16;;;;;;;7.65;2.20;;;17.10;99.90;;;;;;5054206;28;20387;-76
2022/09/09 06:18:42;;;;;;;12.57;5.40;;;17.00;99.90;;;;;;5054262;28;20037;-76
2022/09/09 06:21:21;;;;;;;11.82;4.35;;;17.00;99.90;;;;;;5052923;28;20140;-78
2022/09/09 06:23:48;;;;;;;6.55;1.90;;;17.10;99.90;;;;;;5053855;28;20036;-76
2022/09/09 06:26:17;;;;;;;5.72;1.65;;;17.20;99.90;;;;;;5054790;28;20029;-82
2022/09/09 06:28:44;;;;;;;6.10;1.52;;;17.10;99.90;;;;;;5054159;28;20048;-81
2022/09/09 06:31:12;;;;;;;9.13;1.55;;;17.20;99.90;;;;;;5036611;28;20463;-82
2022/09/09 06:33:40;;;;;;;6.90;1.33;;;17.20;99.90;;;;;;5054569;28;20045;-80
2022/09/09 06:36:10;;;;;;;5.03;1.70;;;17.20;99.90;;;;;;5054141;28;20047;-83
2022/09/09 06:38:36;;;;;;;4.68;1.52;;;17.20;99.90;;;;;;5052562;28;20021;-80
2022/09/09 06:41:05;;;;;;;6.32;1.60;;;17.20;99.90;;;;;;5054066;28;20017;-83
2022/09/09 06:43:31;;;;;;;4.68;1.42;;;17.20;99.90;;;;;;5072081;28;20029;-80
2022/09/09 06:46:05;;;;;;;8.88;5.50;;;17.20;99.90;;;;;;5060683;28;20025;-84
2022/09/09 06:48:31;;;;;;;8.02;3.85;;;17.20;99.90;;;;;;5063151;28;20032;-80
2022/09/09 06:51:05;;;;;;;7.13;2.35;;;17.20;99.90;;;;;;5050940;28;20025;-77
2022/09/09 06:53:33;;;;;;;2.88;1.30;;;17.30;99.90;;;;;;5054141;28;20021;-78
2022/09/09 06:56:01;;;;;;;8.25;1.88;;;17.30;99.90;;;;;;5054683;28;20044;-81
2022/09/09 06:58:32;;;;;;;6.50;1.50;;;17.30;99.90;;;;;;5054007;28;20036;-84
2022/09/09 07:01:07;;;;;;;4.20;1.30;;;17.40;99.90;;;;;;5054073;28;20451;-82
2022/09/09 07:03:33;;;;;;;6.63;1.45;;;17.40;99.90;;;;;;5053434;28;20041;-80
2022/09/09 07:05:59;;;;;;;3.78;1.50;;;17.50;99.90;;;;;;5051981;28;20052;-80
2022/09/09 07:08:26;;;;;;;6.40;1.85;;;17.50;99.90;;;;;;5053249;28;20103;-81
2022/09/09 07:10:55;;;;;;;9.77;3.45;;;17.50;99.90;;;;;;5053816;28;20021;-81
2022/09/09 07:13:25;;;;;;;7.32;2.10;;;17.60;99.90;;;;;;5052949;28;20088;-79
2022/09/09 07:15:51;;;;;;;7.95;1.77;;;17.60;99.90;;;;;;5053097;28;20529;-80
2022/09/09 07:18:17;;;;;;;2.72;1.27;;;17.70;99.90;;;;;;5053125;28;20029;-82
2022/09/09 07:20:52;;;;;;;6.72;2.17;;;17.70;99.90;;;;;;5053123;28;20048;-81
2022/09/09 07:23:18;;;;;;;3.92;1.45;;;17.70;99.90;;;;;;5053782;28;20037;-83
2022/09/09 07:25:47;;;;;;;21.73;10.38;;;17.70;99.90;;;;;;5052995;28;20041;-85
2022/09/09 07:28:13;;;;;;;13.10;4.32;;;17.80;99.90;;;;;;5054305;28;20039;-86
2022/09/09 07:30:40;;;;;;;5.97;1.50;;;17.80;99.90;;;;;;5054278;28;20124;-80
2022/09/09 07:33:05;;;;;;;6.22;1.67;;;17.80;99.90;;;;;;5053622;28;20371;-84
2022/09/09 07:35:31;;;;;;;6.25;1.30;;;17.90;99.90;;;;;;5053258;28;20035;-81
2022/09/09 07:37:58;;;;;;;4.72;1.50;;;17.90;99.90;;;;;;5053431;28;20047;-83
2022/09/09 07:40:24;;;;;;;9.38;2.83;;;17.90;99.90;;;;;;5052663;28;20029;-84
2022/09/09 07:42:50;;;;;;;9.05;3.63;;;18.00;99.90;;;;;;5053130;28;20041;-84
2022/09/09 07:45:16;;;;;;;11.27;2.80;;;18.00;99.90;;;;;;5051428;28;20048;-80
2022/09/09 07:47:42;;;;;;;4.15;1.60;;;18.10;99.90;;;;;;5052253;28;20090;-81
2022/09/09 07:50:09;;;;;;;4.63;1.63;;;18.10;99.90;;;;;;5052305;28;20028;-81
2022/09/09 07:52:35;;;;;;;4.72;1.58;;;18.20;99.90;;;;;;5053154;28;20036;-79
2022/09/09 07:55:02;;;;;;;6.53;1.60;;;18.20;99.90;;;;;;5052262;28;20049;-80
2022/09/09 07:57:30;;;;;;;3.78;1.35;;;18.30;99.90;;;;;;5053055;28;20071;-80
2022/09/09 07:59:56;;;;;;;5.18;1.20;;;18.30;99.90;;;;;;5052021;28;20033;-82
2022/09/09 08:02:23;;;;;;;5.13;1.38;;;18.30;99.90;;;;;;5035210;28;20049;-83
2022/09/09 08:04:50;;;;;;;4.60;1.38;;;18.40;99.90;;;;;;5052689;28;20197;-79
2022/09/09 08:07:16;;;;;;;5.00;1.65;;;18.50;99.90;;;;;;5052747;28;20514;-82
2022/09/09 08:09:42;;;;;;;6.60;1.08;;;18.50;99.90;;;;;;5063176;28;20407;-81
2022/09/09 08:12:08;;;;;;;4.13;1.13;;;18.60;99.90;;;;;;5048679;28;20431;-80
2022/09/09 08:14:34;;;;;;;6.55;1.67;;;18.80;99.90;;;;;;5053835;28;20039;-80
2022/09/09 08:17:00;;;;;;;4.60;2.85;;;19.00;99.90;;;;;;5073116;28;20033;-81
2022/09/09 08:19:29;;;;;;;7.22;1.55;;;19.10;99.90;;;;;;5055095;28;20028;-83
2022/09/09 08:21:54;;;;;;;5.28;1.30;;;19.20;99.90;;;;;;5063796;28;20519;-80
2022/09/09 08:24:20;;;;;;;6.82;0.93;;;19.40;99.90;;;;;;5063685;28;20057;-82
2022/09/09 08:26:51;;;;;;;3.58;1.27;;;20.20;99.90;;;;;;5053674;28;20111;-80
2022/09/09 08:29:17;;;;;;;3.88;1.60;;;21.30;99.90;;;;;;5072178;28;20043;-79
2022/09/09 08:31:46;;;;;;;10.13;1.70;;;22.50;99.90;;;;;;5052197;28;20040;-78
2022/09/09 08:34:13;;;;;;;3.42;1.13;;;23.00;98.70;;;;;;5065996;28;20052;-78
2022/09/09 08:36:42;;;;;;;2.53;0.93;;;22.80;98.80;;;;;;5060870;28;20087;-79
2022/09/09 08:39:09;;;;;;;8.23;1.10;;;22.40;97.90;;;;;;5057710;28;20032;-81
2022/09/09 08:42:02;;;;;;;5.47;1.33;;;22.10;98.10;;;;;;5069362;28;20424;-76
2022/09/09 08:44:34;;;;;;;3.90;1.17;;;21.80;98.40;;;;;;5051867;28;20032;-78
2022/09/09 08:47:06;;;;;;;5.22;1.10;;;21.50;98.50;;;;;;5071913;28;20081;-79
2022/09/09 08:49:46;;;;;;;4.38;0.98;;;21.20;97.50;;;;;;5053269;28;20078;-82
2022/09/09 08:52:21;;;;;;;6.70;1.25;;;21.10;98.20;;;;;;5033194;28;20752;-77
2022/09/09 08:54:47;;;;;;;5.53;1.13;;;21.00;98.10;;;;;;5050803;28;20053;-77
2022/09/09 08:57:26;;;;;;;3.88;0.90;;;20.90;98.20;;;;;;5051119;28;20033;-78
2022/09/09 08:59:54;;;;;;;2.55;1.17;;;20.80;98.10;;;;;;5050592;28;20025;-76
2022/09/09 09:02:24;;;;;;;4.78;1.20;;;20.90;98.50;;;;;;5046910;28;20037;-79
2022/09/09 09:05:29;;;;;;;3.47;1.13;;;20.80;98.30;;;;;;5029822;28;20060;-76
2022/09/09 09:08:10;;;;;;;3.63;0.90;;;20.80;98.40;;;;;;5049161;28;20041;-76
2022/09/09 09:10:53;;;;;;;4.15;1.33;;;20.70;98.10;;;;;;5032533;28;20037;-76
2022/09/09 09:13:22;;;;;;;4.40;1.33;;;20.70;97.90;;;;;;5047697;28;20475;-76
2022/09/09 09:15:56;;;;;;;5.45;1.27;;;20.80;98.40;;;;;;5052069;28;20045;-78
2022/09/09 09:18:22;;;;;;;3.28;1.00;;;20.90;98.40;;;;;;5051559;28;20033;-76
2022/09/09 09:21:11;;;;;;;7.70;1.42;;;21.00;98.20;;;;;;5051576;28;20040;-76
2022/09/09 09:23:47;;;;;;;5.55;1.30;;;21.40;98.50;;;;;;5050180;28;20359;-79
2022/09/09 09:26:13;;;;;;;4.28;1.10;;;21.70;97.80;;;;;;5051333;28;20028;-77
2022/09/09 09:28:40;;;;;;;6.28;1.40;;;21.50;97.40;;;;;;5050739;28;20029;-77
2022/09/09 09:31:14;;;;;;;4.13;1.00;;;21.70;97.70;;;;;;5050755;28;20364;-73
2022/09/09 09:33:46;;;;;;;10.45;1.10;;;21.70;97.40;;;;;;5051272;28;20037;-73
2022/09/09 09:36:15;;;;;;;11.75;1.50;;;21.80;97.40;;;;;;5050955;28;20033;-76
2022/09/09 09:39:02;;;;;;;3.13;1.05;;;21.90;97.40;;;;;;5050336;28;20095;-76
2022/09/09 09:41:40;;;;;;;6.85;1.27;;;21.90;96.60;;;;;;5050578;28;20370;-79
2022/09/09 09:44:24;;;;;;;5.50;0.95;;;22.00;96.80;;;;;;5050932;28;20143;-77
2022/09/09 09:46:51;;;;;;;3.47;1.00;;;22.10;96.00;;;;;;5050572;28;20349;-76
2022/09/09 09:49:22;;;;;;;5.55;1.25;;;22.30;96.60;;;;;;5053052;28;20368;-75
2022/09/09 09:51:48;;;;;;;8.00;1.30;;;22.50;96.10;;;;;;5053690;28;20060;-76
2022/09/09 09:54:27;;;;;;;4.22;1.00;;;22.80;96.00;;;;;;5055309;28;20114;-73
2022/09/09 09:56:53;;;;;;;5.07;0.98;;;23.30;95.20;;;;;;5054534;28;20032;-75
2022/09/09 09:59:20;;;;;;;5.88;1.25;;;23.50;94.30;;;;;;5054052;28;20355;-75
2022/09/09 10:01:45;;;;;;;1.23;0.70;;;23.50;94.80;;;;;;5053503;28;20045;-78
2022/09/09 10:04:18;;;;;;;4.68;1.40;;;23.60;95.00;;;;;;5053525;28;20040;-75
2022/09/09 10:06:44;;;;;;;7.30;1.08;;;23.50;94.60;;;;;;5055661;28;20040;-76
2022/09/09 10:09:33;;;;;;;11.05;1.60;;;23.60;95.20;;;;;;5055725;28;20033;-76
2022/09/09 10:12:14;;;;;;;3.67;0.90;;;23.60;94.80;;;;;;5054462;28;20136;-75
2022/09/09 10:14:51;;;;;;;4.40;1.13;;;24.20;95.70;;;;;;5054196;28;20096;-75
2022/09/09 10:17:34;;;;;;;5.28;1.17;;;25.30;93.50;;;;;;5054434;28;20108;-77
2022/09/09 10:20:30;;;;;;;2.95;1.15;;;26.00;90.60;;;;;;5054106;28;20345;-77
2022/09/09 10:23:40;;;;;;;7.57;1.27;;;27.10;90.80;;;;;;5053237;28;20053;-75
2022/09/09 10:26:37;;;;;;;7.30;1.30;;;27.80;85.10;;;;;;5029161;28;20037;-75
2022/09/09 10:29:43;;;;;;;3.58;1.27;;;28.10;87.40;;;;;;5033890;28;20037;-77
2022/09/09 10:32:46;;;;;;;8.48;1.45;;;28.40;84.70;;;;;;5032790;28;20034;-78
2022/09/09 10:35:30;;;;;;;2.95;1.13;;;28.20;83.30;;;;;;5034026;28;20295;-76
2022/09/09 10:38:05;;;;;;;3.90;1.10;;;27.70;83.60;;;;;;5033867;28;20037;-75
2022/09/09 10:40:51;;;;;;;3.90;1.02;;;27.00;83.70;;;;;;5033662;28;20037;-77
2022/09/09 10:43:23;;;;;;;4.82;1.33;;;26.20;84.90;;;;;;5033866;28;20123;-75
2022/09/09 10:46:08;;;;;;;5.80;1.38;;;25.60;85.70;;;;;;5032541;28;20060;-78
2022/09/09 10:48:43;;;;;;;5.85;1.80;;;25.40;87.10;;;;;;5033335;28;20022;-77
2022/09/09 10:51:36;;;;;;;5.43;1.30;;;24.90;87.80;;;;;;5032542;28;20029;-78
2022/09/09 10:54:23;;;;;;;5.47;1.65;;;24.60;89.10;;;;;;5032439;28;20045;-77
2022/09/09 10:56:56;;;;;;;11.77;1.70;;;24.20;89.20;;;;;;5018025;28;20034;-76
2022/09/09 10:59:29;;;;;;;9.30;1.58;;;23.90;90.30;;;;;;5012657;28;20022;-75
2022/09/09 11:02:13;;;;;;;7.05;2.00;;;23.80;90.60;;;;;;5043681;28;20112;-76
2022/09/09 11:04:50;;;;;;;7.00;1.30;;;23.50;90.70;;;;;;5052756;28;20426;-74
2022/09/09 11:07:28;;;;;;;4.72;1.40;;;23.50;91.20;;;;;;5051528;28;20025;-73
2022/09/09 11:10:01;;;;;;;8.57;3.28;;;23.20;91.20;;;;;;5053003;28;20036;-76
2022/09/09 11:12:29;;;;;;;7.43;1.63;;;23.10;91.80;;;;;;5054703;28;20458;-78
2022/09/09 11:15:14;;;;;;;3.90;0.90;;;23.00;91.90;;;;;;5054481;28;20029;-78
2022/09/09 11:17:46;;;;;;;6.88;1.10;;;22.80;92.40;;;;;;5070001;28;20090;-77
2022/09/09 11:20:14;;;;;;;4.50;1.00;;;22.70;92.80;;;;;;5055363;28;20087;-80
2022/09/09 11:22:40;;;;;;;8.48;1.45;;;22.60;93.00;;;;;;5054480;28;20390;-76
2022/09/09 11:25:31;;;;;;;9.68;1.45;;;22.40;93.50;;;;;;5054078;28;20479;-88
2022/09/09 11:28:14;;;;;;;6.07;1.30;;;22.30;93.90;;;;;;5054311;28;20344;-84
2022/09/09 11:30:52;;;;;;;10.15;1.88;;;22.10;94.60;;;;;;5051753;28;20033;-78
2022/09/09 11:33:43;;;;;;;8.43;1.60;;;21.80;95.30;;;;;;5053553;28;20029;-81
2022/09/09 11:36:30;;;;;;;6.25;1.63;;;21.70;95.40;;;;;;5052834;28;20034;-81
2022/09/09 11:39:24;;;;;;;8.35;1.95;;;21.60;95.90;;;;;;5051170;28;20371;-79
2022/09/09 11:41:49;;;;;;;3.45;0.90;;;21.50;96.80;;;;;;5053041;28;20025;-82
2022/09/09 11:44:29;;;;;;;7.65;0.95;;;21.20;96.30;;;;;;5053338;28;20028;-80
2022/09/09 11:46:56;;;;;;;7.78;2.33;;;21.00;95.70;;;;;;5053226;28;20037;-82
2022/09/09 11:49:31;;;;;;;6.00;1.30;;;20.70;95.30;;;;;;5055050;28;20032;-84
2022/09/09 11:51:58;;;;;;;3.88;0.80;;;20.40;95.50;;;;;;5054484;28;20025;-85
2022/09/09 11:54:29;;;;;;;3.90;0.80;;;20.20;95.70;;;;;;5052525;28;20132;-81
2022/09/09 11:56:55;;;;;;;1.85;0.90;;;20.10;96.20;;;;;;5052302;28;20380;-81
2022/09/09 11:59:22;;;;;;;6.78;0.90;;;19.90;96.50;;;;;;5053488;28;20029;-80
2022/09/09 12:02:31;;;;;;;4.03;0.70;;;19.80;96.60;;;;;;5052301;28;20063;-79
2022/09/09 12:05:13;;;;;;;3.78;0.80;;;19.60;96.70;;;;;;5035164;28;20048;-77
2022/09/09 12:07:47;;;;;;;4.82;1.10;;;19.50;96.90;;;;;;5053575;28;20400;-77
2022/09/09 12:10:27;;;;;;;3.30;0.68;;;19.40;97.00;;;;;;5035218;28;20080;-77
2022/09/09 12:12:52;;;;;;;4.78;0.65;;;19.30;96.90;;;;;;5043999;28;20052;-76
2022/09/09 12:15:25;;;;;;;4.57;0.75;;;19.10;97.30;;;;;;5050728;28;20053;-78
2022/09/09 12:17:53;;;;;;;3.78;1.02;;;19.00;97.70;;;;;;5050772;28;20022;-77
2022/09/09 12:20:45;;;;;;;;;;;18.90;97.90;;;;;;5052759;28;20028;-78
2022/09/09 12:23:19;;;;;;;5.68;0.98;;;18.90;98.10;;;;;;5049546;28;20354;-77
2022/09/09 12:25:49;;;;;;;7.22;1.05;;;18.90;98.30;;;;;;5051468;28;20112;-77
2022/09/09 12:28:19;;;;;;;6.55;0.90;;;18.90;99.10;;;;;;5051997;28;20363;-78
2022/09/09 12:31:17;;;;;;;3.80;1.23;;;19.10;99.90;;;;;;5063649;28;20037;-78
2022/09/09 12:33:47;;;;;;;6.00;1.10;;;19.10;99.90;;;;;;5061942;28;20391;-76
2022/09/09 12:36:29;;;;;;;6.43;2.92;;;19.40;99.90;;;;;;5038774;28;20275;-79
2022/09/09 12:38:59;;;;;;;11.60;1.83;;;19.50;99.90;;;;;;5053103;28;20060;-77
2022/09/09 12:41:27;;;;;;;2.20;0.70;;;19.60;99.90;;;;;;5052318;28;20493;-79
2022/09/09 12:44:08;;;;;;;2.45;0.63;;;19.80;99.90;;;;;;5034645;28;20032;-78
2022/09/09 12:46:40;;;;;;;1.67;0.80;;;20.00;99.80;;;;;;5070571;28;20054;-78
2022/09/09 12:49:23;;;;;;;2.97;0.50;;;20.10;99.50;;;;;;5039812;28;20036;-77
2022/09/09 12:51:49;;;;;;;3.33;0.93;;;20.20;99.40;;;;;;5052190;28;20033;-77
2022/09/09 12:54:15;;;;;;;4.18;0.98;;;20.40;99.20;;;;;;5052782;28;20406;-77
2022/09/09 12:56:46;;;;;;;2.10;0.60;;;20.60;99.90;;;;;;5034878;28;20032;-77
2022/09/09 12:59:36;;;;;;;2.60;0.75;;;20.70;99.50;;;;;;5052917;28;20021;-75
2022/09/09 13:02:11;;;;;;;5.75;1.00;;;20.80;99.80;;;;;;5042747;28;20059;-79
2022/09/09 13:04:37;;;;;;;2.83;0.75;;;20.90;99.70;;;;;;5052043;28;20051;-77
2022/09/09 13:07:09;;;;;;;5.00;0.77;;;21.00;98.70;;;;;;5052324;28;20141;-76
2022/09/09 13:09:35;;;;;;;0.88;0.68;;;21.00;98.20;;;;;;5052366;28;20033;-76
2022/09/09 13:12:05;;;;;;;4.40;0.95;;;20.90;97.90;;;;;;5039878;28;20033;-75
2022/09/09 13:14:37;;;;;;;2.38;0.75;;;20.90;98.40;;;;;;5070501;28;20111;-77